07:18
Airports
Links
Donate
Help keep this website running!
PayPal
Bitcoin
METAR
KCRG 190653Z AUTO 00000KT 9SM CLR M01/M02 A3034 RMK AO2 SLP275 T10061022
Current Weather Conditions at KCRG
VFR 06:53:00 19-01-18
Automated station, no observer
Altimeter:30.34 hg
Temp:-0.6°c 32°f
Dew point:-2.2°c 28°f
Wind:0 knots, 0 mph, 0 m/s,
Variable direction
Visibility:9.0 statute miles
(CLR) Clear
Past METAR reports
VFR 05:53:00 19-01-18
Automated station, no observer
Altimeter:30.35 hg
Temp:-0.6°c 32°f
Dew point:-2.8°c 28°f
Wind:0 knots, 0 mph, 0 m/s,
Variable direction
Visibility:7.0 statute miles
(CLR) Clear
KCRG 190553Z AUTO 00000KT 7SM CLR M01/M03 A3035 RMK AO2 SLP278 T10061028 10044 21006 56008
VFR 04:53:00 19-01-18
Automated station, no observer
Altimeter:30.36 hg
Temp:0.0°c 32°f
Dew point:-2.8°c 28°f
Wind:0 knots, 0 mph, 0 m/s,
Variable direction
Visibility:10.0 statute miles
(CLR) Clear
KCRG 190453Z AUTO 00000KT 10SM CLR 00/M03 A3036 RMK AO2 SLP281 T00001028 401001033
VFR 03:53:00 19-01-18
Automated station, no observer
Altimeter:30.37 hg
Temp:0.6°c 32°f
Dew point:-1.1°c 30°f
Wind:0 knots, 0 mph, 0 m/s,
Variable direction
Visibility:10.0 statute miles
(CLR) Clear
KCRG 190353Z AUTO 00000KT 10SM CLR 01/M01 A3037 RMK AO2 SLP282 T00061011
VFR 02:53:00 19-01-18
Automated station
Altimeter:30.38 hg
Temp:1.1°c 34°f
Dew point:-1.1°c 30°f
Wind:0 knots, 0 mph, 0 m/s,
Variable direction
Visibility:10.0 statute miles
(CLR) Clear
KCRG 190253Z 00000KT 10SM CLR 01/M01 A3038 RMK AO2 SLP286 T00111011 50008
VFR 01:53:00 19-01-18
Automated station
Altimeter:30.38 hg
Temp:1.7°c 34°f
Dew point:-0.6°c 32°f
Wind:0 knots, 0 mph, 0 m/s,
Variable direction
Visibility:10.0 statute miles
(CLR) Clear
KCRG 190153Z 00000KT 10SM CLR 02/M01 A3038 RMK AO2 SLP286 T00171006
TAF
KCRG 190525Z 1906/2006 00000KT P6SM SKC FM191400 27003KT P6SM SKC FM191700 24006KT P6SM FEW250 FM192300 VRB03KT P6SM FEW250
Forecast at KCRG
06:00 19-01-18 to 14:00 19-01-18
Wind:0 Knots Variable direction
Visibility:6.21 statute miles
SKC Clear
FM 14:00 19-01-18 to 17:00 19-01-18
Wind:3 Knots from 270°
Visibility:6.21 statute miles
SKC Clear
FM 17:00 19-01-18 to 23:00 19-01-18
Wind:6 Knots from 240°
Visibility:6.21 statute miles
25000FEW A few
FM 23:00 19-01-18 to 06:00 20-01-18
Wind:3 Knots from 360°
Visibility:6.21 statute miles
25000FEW A few